x

Neah Bay, - 6nm North Of Cape Flattery, Wa (traffic Separation Lighted Buoy) (46087) Wave Buoy

10:50 - Tue 21st Feb 2017 All times are PST. -8 hours from GMT.

  • Sig Wave height 4.9ft
  • Swell Direction
  • Peak Period 11s
  • Average Period 7s
  • Wind
    13mph, 18mph gusts
  • Sea Temp 47°f
  • Luft Temp 44°f
  • Sea Pressure 1012.9mb
  • Neah Bay, - 6nm North Of Cape Flattery, Wa     (traffic Separation Lighted Buoy)
  • Neah Bay, - 6nm North Of Cape Flattery, Wa     (traffic Separation Lighted Buoy)

More Historic Weather Station data

Upgrade to MSW Pro to gain access to the past 30 days of data for over 8000 Wavebouys and Weather Stations around the globe.

Join Pro

Comparision Forecast

View Surf forecast
   
Di 02/21 10:50 5ft 11s 7s 13 18 mph 1012.9mb 47f 44f
10:20 5ft 11s 8s 7 9 mph 1012.5mb 47f 42f
9:50 5ft 11s 8s 7
mph
1012mb 47f 42f
9:20 5ft 11s 8s 4 7 mph 1011.4mb 47f 42f
8:50 5ft 11s 8s 7
mph
1010.8mb 47f 42f
8:20 5ft 11s 8s 7 11 mph 1010.4mb 47f 42f
7:50 5ft 11s 9s 9 11 mph 1009.8mb 47f 42f
7:20 5ft 11s 8s 7 9 mph 1009.1mb 47f 41f
6:50 4.5ft 12s 8s 7 9 mph 1008.8mb 47f 42f
6:20 5ft 12s 9s 9 11 mph 1008.4mb 47f 42f
5:50 5.5ft 12s 9s 7 9 mph 1008.3mb 47f 42f
5:20 5ft 12s 8s 9
mph
1007.8mb 47f 42f
4:50 5ft 12s 8s 2 4 mph 1007.6mb 47f 42f
4:20 4.5ft 12s 8s 4 7 mph 1007.5mb 47f 42f
3:50 5ft 12s 8s 7 9 mph 1007.5mb 48f 42f
3:20 4.5ft 11s 8s 9 11 mph 1007.5mb 48f 42f
2:50 5ft 13s 8s 4 7 mph 1007.6mb 47f 44f
2:20 4.5ft 13s 8s 4 9 mph 1007.4mb 47f 43f
1:50 5ft 12s 8s 4 7 mph 1007.2mb 47f 42f
1:20 5ft 12s 8s 9 11 mph 1006.7mb 47f 42f
12:50 5.5ft 12s 8s 9 11 mph 1006.4mb 47f 42f
12:20 5ft 12s 8s 9 11 mph 1006.7mb 47f 43f
Mo 02/20 11:50 5ft 12s 8s 11 16 mph 1006.8mb 47f 43f
11:20 5.5ft 13s 8s 13 16 mph 1006.8mb 47f 43f
10:50 6ft 12s 8s 13 16 mph 1006.5mb 46f 43f
10:20 6.5ft 12s 8s 11 13 mph 1006.3mb 46f 43f
9:50 6ft 12s 8s 9 11 mph 1006.1mb 47f 44f
9:20 6ft 11s 8s 7 9 mph 1005.9mb 47f 43f
8:50 6ft 12s 8s 7 9 mph 1005.8mb 47f 44f
8:20 7ft 11s 9s 9 11 mph 1005.9mb 47f 46f
7:50 6ft 11s 9s 11 13 mph 1006mb 47f 46f
7:20 7ft 13s 9s 11 13 mph 1005.9mb 47f 46f
6:50 6.5ft 12s 9s 9 11 mph 1005.7mb 47f 46f
6:20 7ft 13s 9s 7 9 mph 1005.5mb 48f 46f
5:50 7ft 13s 9s 7 9 mph 1005.1mb 48f 46f
5:20 7ft 11s 9s 9 11 mph 1005mb 48f 46f
4:50 7ft 14s 9s 11 13 mph 1004.9mb 48f 46f
4:20 6ft 13s 8s 11 16 mph 1004.6mb 48f 46f
3:50 6.5ft 14s 9s 13 16 mph 1004.3mb 49f 46f
3:20 6ft 12s 9s 13 16 mph 1003.7mb 49f 46f
2:50 6ft 14s 10s 13 16 mph 1003.3mb 49f 46f
2:20 7ft 13s 11s 11 13 mph 1003mb 49f 46f
1:50 7ft 12s 10s 9 11 mph 1002.7mb 48f 46f
1:20 6ft 14s 10s 9 11 mph 1002.5mb 48f 46f
12:50 7ft 14s 10s 9 11 mph 1002.1mb 48f 46f
12:20 6.5ft 13s 10s 9
mph
1001.9mb 48f 45f
11:50 6.5ft 14s 10s 9
mph
1001.3mb 48f 45f
11:20 7ft 14s 10s 7
mph
1000.9mb 48f 45f
10:50 7ft 14s 10s 4 9 mph 1000.6mb 48f 44f
10:20 8ft 15s 10s 7 11 mph 1000.4mb 48f 44f
9:50 8ft 13s 10s 11 16 mph 1000mb 48f 44f
9:20 7.5ft 12s 10s 13 18 mph 999.6mb 48f 44f
8:50 8.5ft 15s 10s 11 16 mph 999.4mb 48f 43f
8:20 9ft 14s 11s 7 9 mph 999.2mb 47f 43f
7:50 9ft 12s 10s 7 9 mph 999.1mb 47f 43f
7:20 9ft 14s 10s 7 11 mph 999.1mb 47f 43f
6:50 9.5ft 13s 10s 9 13 mph 999.3mb 47f 43f
6:20 9ft 13s 10s 9 11 mph 999.3mb 47f 44f
5:50 9ft 14s 10s 7 9 mph 999.6mb 47f 44f
5:20 8ft 15s 11s 9 11 mph 999.8mb 47f 44f
4:50 8ft 14s 10s 9 11 mph 999.8mb 47f 44f
4:20 7.5ft 16s 10s 11 13 mph 999.9mb 47f 44f
3:50 8ft 15s 11s 11 16 mph 1000.1mb 47f 44f
3:20 7.5ft 16s 10s 11 16 mph 1000.4mb 47f 44f
2:50 8ft 15s 10s 9 13 mph 1000.7mb 47f 44f
2:20 7ft 16s 10s 4 7 mph 1001.1mb 47f 44f
1:50 8ft 16s 10s  -  2 mph 1001.4mb 47f 44f
1:20 7ft 16s 10s 2 4 mph 1001.4mb 47f 45f
12:50 6ft 16s 10s 4 7 mph 1001.4mb 47f 45f
12:20 7ft 16s 10s 11 18 mph 1001.3mb 47f 44f
So 02/19 11:50 6ft 16s 9s 9 11 mph 1001.2mb 47f 45f
11:20 6.5ft 16s 9s 11 16 mph 1001mb 48f 45f
10:50 6ft 16s 8s 7 11 mph 1000.8mb 47f 45f
10:20 6.5ft 16s 8s 9 11 mph 1000.2mb 47f 46f
9:50 6ft 16s 8s 7 9 mph 1000.2mb 47f 45f
9:20 6.5ft 17s 8s 13 16 mph 999.8mb 47f 45f
8:50 6.5ft 17s 8s 11 16 mph 999.3mb 47f 45f
8:20 6ft 17s 7s 16 22 mph 998.9mb 47f 45f
7:50 6ft 17s 7s 16 20 mph 998.3mb 48f 46f
7:20 5.5ft 17s 7s 18 20 mph 997.8mb 48f 46f
6:50 5ft 19s 6s 18 22 mph 997.2mb 48f 46f
6:20 5ft 19s 7s 20 25 mph 996.9mb 48f 45f
5:50 5ft 10s 6s 18 22 mph 996.4mb 48f 45f
5:20 5ft 10s 7s 18 22 mph 996mb 48f 45f
4:50 5ft 10s 7s 16 20 mph 995.6mb 48f 46f
4:20 4.5ft 12s 6s 16 18 mph 995.3mb 48f 46f
3:50 4.5ft 10s 6s 16 20 mph 994.9mb 48f 47f
3:20 5ft 10s 6s 16 20 mph 994.7mb 48f 47f
2:50 4.5ft 11s 7s 18 22 mph 994.4mb 48f 46f
2:20 4.5ft 11s 7s 16 20 mph 994.2mb 47f 45f
1:50 4.5ft 11s 7s 16 18 mph 994.1mb 47f 44f
1:20 4.5ft 11s 7s 18 22 mph 994mb 47f 45f
12:50 4.5ft 11s 8s 18 20 mph 993.9mb 47f 45f
12:20 4.5ft 11s 7s 16 20 mph 994.2mb 47f 44f
11:50 4.5ft 11s 8s 16 18 mph 994.2mb 47f 44f
11:20 4.5ft 11s 8s 13 18 mph 994.2mb 47f 44f
10:50 4.5ft 11s 8s 11 16 mph 993.8mb 47f 44f
10:20 4.5ft 11s 8s 13 16 mph 993.6mb 47f 44f
9:50 4.5ft 11s 7s 13 16 mph 993.6mb 47f 44f
9:20 4.5ft 12s 8s 13 16 mph 993.4mb 47f 44f
8:50 4.5ft 11s 8s 13 16 mph 993.3mb 47f 44f
8:20 4.5ft 11s 7s 13 16 mph 993.2mb 47f 44f
7:50 4.5ft 12s 8s 13 18 mph 993.2mb 47f 44f
7:20 4.5ft 11s 8s 11 13 mph 993.2mb 47f 44f
6:50 4.5ft 10s 8s 9
mph
993.1mb 47f 44f
6:20 5ft 11s 8s 9 11 mph 993.3mb 47f 44f
5:50 4.5ft 12s 7s 13 16 mph 993.2mb 47f 44f
5:20 5ft 11s 8s 13 16 mph 993.2mb 47f 44f
4:50 4.5ft 11s 8s 13 18 mph 993.2mb 47f 44f
4:20 4.5ft 11s 8s 11 13 mph 993.5mb 47f 44f
3:50 5.5ft 11s 8s 9 11 mph 993.5mb 47f 44f
3:20 5ft 11s 8s 9 11 mph 993.7mb 47f 45f
2:50 5.5ft 12s 9s 9 11 mph 994.1mb 47f 45f
2:20 5ft 11s 8s 7 11 mph 994.3mb 47f 45f
1:50 5ft 11s 8s 7 9 mph 994.4mb 47f 45f
1:20 5.5ft 11s 8s 9 11 mph 994.5mb 47f 44f
12:50 5.5ft 11s 8s 11 13 mph 994.8mb 47f 44f
12:20 5.5ft 11s 8s 11 13 mph 994.8mb 47f 45f
Sa 02/18 11:50 5.5ft 11s 8s 11 13 mph 995mb 47f 44f
11:20 5.5ft 10s 8s 13 16 mph 995.1mb 47f 44f
10:50 6ft 11s 8s 11 16 mph 995.2mb 47f 46f
10:20 5.5ft 10s 8s 9 11 mph 995.1mb 47f 46f
9:50 6ft 13s 8s 11 13 mph 995.1mb 47f 46f
9:20 6ft 11s 8s 9 13 mph 995.1mb 47f 46f
8:50 6ft 11s 8s 9 11 mph 995mb 47f 46f
8:20 6ft 11s 8s 7 11 mph 994.7mb 47f 47f
7:50 6.5ft 11s 8s 9 11 mph 994.7mb 47f 47f
7:20 6ft 11s 8s 9 11 mph 994.7mb 48f 47f
6:50 5.5ft 11s 7s 9 11 mph 994.6mb 48f 47f
6:20 5.5ft 11s 7s 11 18 mph 994.5mb 48f 46f
5:50 5ft 12s 8s 16 18 mph 994.4mb 48f 45f
5:20 6ft 12s 8s 16 18 mph 994.4mb 48f 45f
4:50 5.5ft 12s 8s 16 18 mph 994.6mb 48f 45f
4:20 5.5ft 12s 8s 13 18 mph 994.6mb 48f 45f
3:50 5.5ft 11s 8s 16 18 mph 994.7mb 48f 45f
3:20 5ft 11s 8s 13 18 mph 994.8mb 48f 45f
2:50 5ft 13s 8s 13 18 mph 994.7mb 48f 44f
2:20 5.5ft 11s 8s 13 18 mph 994.8mb 48f 45f
1:50 5ft 12s 8s 16 18 mph 995mb 48f 45f
1:20 6ft 12s 8s 16 20 mph 995.2mb 48f 45f
12:50 5.5ft 11s 7s 16 20 mph 995.4mb 48f 45f
12:20 5ft 12s 7s 18 20 mph 995.5mb 48f 46f
11:50 5.5ft 12s 6s 18 22 mph 995.6mb 48f 46f
11:20 6ft 11s 7s 18 22 mph 995.8mb 47f 46f
10:50 5.5ft 11s 7s 18 22 mph 996mb 47f 46f
10:20 6ft 11s 8s 18 22 mph 996.2mb 47f 46f
9:50 6ft 11s 8s 16 20 mph 996.2mb 47f 46f
9:20 6ft 13s 8s 13 18 mph 996.3mb 47f 45f
8:50 6ft 11s 8s 16 18 mph 996.2mb 47f 45f
8:20 6ft 11s 9s 13 18 mph 996.4mb 47f 45f
7:50 6.5ft 11s 9s 11 13 mph 996.7mb 47f 45f
7:20 6.5ft 11s 9s 11 13 mph 996.8mb 47f 45f
6:50 6.5ft 11s 9s 9 11 mph 997mb 47f 45f
6:20 6ft 11s 9s 9 11 mph 997.2mb 47f 45f
5:50 6ft 10s 9s 9 13 mph 997.4mb 47f 45f
5:20 7ft 11s 9s 9 11 mph 997.4mb 47f 44f
4:50 6ft 9s 9s 9 13 mph 997.5mb 47f 44f
4:20 6ft 10s 9s 9 11 mph 997.6mb 47f 45f
3:50 7ft 11s 9s 9 11 mph 997.9mb 47f 45f
3:20 6.5ft 11s 9s 7 11 mph 998mb 47f 45f
2:50 6ft 11s 9s 7 9 mph 998.3mb 47f 45f
2:20 5.5ft 11s 8s 7 9 mph 998.3mb 47f 45f
1:50 6ft 13s 9s 9
mph
998.4mb 47f 45f
1:20 6ft 11s 9s 9 11 mph 998.7mb 47f 45f
12:50 6ft 11s 9s 9 11 mph 999mb 47f 44f
12:20 5.5ft 13s 8s 9 11 mph 999.1mb 47f 45f
Fr 02/17 11:50 6ft 11s 8s 7 11 mph 999.5mb 47f 45f
11:20 6ft 11s 8s 9 11 mph 999.7mb 48f 45f
10:50 6.5ft 11s 8s 11 13 mph 999.9mb 48f 45f
10:20 6ft 11s 9s 11 13 mph 1000.1mb 48f 45f
9:50 7.5ft 11s 9s 9 11 mph 1000.5mb 48f 46f
9:20 6.5ft 11s 8s 7 9 mph 1000.6mb 48f 46f
8:50 7ft 11s 9s 9 11 mph 1000.6mb 48f 46f
8:20 6.5ft 10s 9s 9 11 mph 1000.8mb 48f 46f
7:50 7ft 11s 9s 9 11 mph 1001.1mb 48f 46f